Craig, Missouri
Current Conditions -  °F | °C
As of 11:53 PM on Tuesday 21 Oct 2014 (Local Time) from KFNB Reporting Station
Broken Clouds Broken Clouds  
Wind Chill: 54°   Ceiling: 5500
Heat Index: 54°   Visibility: 10mi
Dew Point: 43°   Wind: 9mph
Humidity: 66%   Direction: 120°ESE
Pressure: 30.08"   Gusts: NA
Location:  40.19°N, 95.37°W
Report Text: KFNB 220453Z AUTO 12008KT 10SM BKN055 12/06 A3008 RMK AO2 SLP184 T01220061
Loading
Personal Weather Stations






























Interactive Weather Map
Tropical Storm Tracking
New forecast layout! Learn more

10-Day Weather Forecast

Advertisements
Track Severe Weather on mobile